LFRJLFSG

Guest
Details From LFRJ - Landivisiau
To LFSG - Epinal Mirecourt
Flight Number -
Tags Routegen Generated
Created
Modified
Stats Distance 406 nm / 752 km
Max Altitude 5,000 ft / 1,524 m
Waypoints 8
Social Downloads 0
Likes 0
Share

Download

Looking for another format? Having issues loading an existing format? Contact us
Advertisement - Login to hide

Notes

Departing runway 7 LFRJ. Arriving runway 8 LFSG.

Route

LFRJ +48.55_-004.03 +48.55_-003.94 +48.57_-001.45 +48.54_+001.03 +48.33_+005.86 +48.32_+005.94 LFSG

ID Type Via Altitude (ft/m) Position (lat/lon) Dist (leg/tot) Name
O LFRJ APT - 0 / 0 48.53390 / -4.13316 - / 0 nm
+48.55_-004.03 LATLON - 5,000 / 1,524 48.55476 / -4.02849 4 / 4 nm
+48.55_-003.94 LATLON - 5,000 / 1,524 48.55148 / -3.94117 3 / 7 nm
+48.57_-001.45 LATLON - 5,000 / 1,524 48.57354 / -1.45462 98 / 106 nm
+48.54_+001.03 LATLON - 5,000 / 1,524 48.54348 / 1.03150 98 / 205 nm
+48.33_+005.86 LATLON - 2,480 / 756 48.33291 / 5.85931 192 / 398 nm
+48.32_+005.94 LATLON - 880 / 268 48.31788 / 5.94340 3 / 401 nm
O LFSG APT - 0 / 0 48.32415 / 6.05182 4 / 406 nm

Altitude Profile

Advertisement - Login to hide

Weather


0- 5 10 15 20 25 30 35+ Temperature / °C

Clouds and Precipitation
Forecast for 2020-09-30 00:00 UTC. Updated 5 hours ago

Ground ~20,000 ft ~40,000 ft Winds

LFRJ

Details ICAO LFRJ (LDV)
Name Landivisiau Navy
Region France
Timezone Europe/Paris (UTC+2.0)
Stats Elevation 347 ft / 106 m (AMSL)
Location 48.530200° -4.151790°
Runways 1
Magnetic Variation 1.096° W

METAR

LFRJ 300300Z AUTO 20009KT 9999 BKN007 BKN011 OVC044 13/12 Q1013

Decode

TAF

Not found

Departure Runways

ID Width Length Bearing (true/mag) Surface Threshold Overrun Markings Lighting
08 148 ft / 45 m 8,868 ft / 2,703 m 73.24° / 74.34° ASPHALT 0 ft / 0 m 279 ft / 85 m UK-PREC-APP EDGE THRESHOLD REIL-OMNI
26 148 ft / 45 m 8,868 ft / 2,703 m 253.27° / 254.36° ASPHALT 0 ft / 0 m 279 ft / 85 m UK-PREC-APP EDGE THRESHOLD CALVERT-ILS REIL-OMNI

LFSG

Details ICAO LFSG (EPL)
Name Epinal Mirecourt
Region France
Timezone Europe/Paris (UTC+2.0)
Stats Elevation 1,084 ft / 330 m (AMSL)
Location 48.325200° 6.069960°
Runways 1
Magnetic Variation 2.041° E

METAR

LFSG 300300Z AUTO 19005KT 9999 BKN009 OVC015 13/12 Q1017

Decode

TAF

Not found

Destination Runways

ID Width Length Bearing (true/mag) Surface Threshold Overrun Markings Lighting
09 147 ft / 45 m 8,835 ft / 2,693 m 85.05° / 83.01° CONCRETE 0 ft / 0 m 1,662 ft / 507 m APP EDGE THRESHOLD REIL-OMNI
27 147 ft / 45 m 8,835 ft / 2,693 m 265.08° / 263.04° CONCRETE 846 ft / 258 m 0 ft / 0 m PREC-APP EDGE THRESHOLD MALS REIL-OMNI

Approach Navaids

Runway Type Ident Frequency Range Bearing (true/mag) Slope Elevation
27 GS MI 110.90 MHz 10 nm / 19 km 265.12° / 263.08 ° 3.00° 1,084 ft / 330 m (AMSL)
27 OM OM - - 265.06° / 263.02 ° - 1,084 ft / 330 m (AMSL)
27 MM MM - - 265.06° / 263.02 ° - 1,084 ft / 330 m (AMSL)
27 LOC-ILS MI 110.90 MHz 18 nm / 33 km 265.05° / 263.01 ° - 1,084 ft / 330 m (AMSL)